sensor_id;sensor_type;location;lat;lon;timestamp;pressure;altitude;pressure_sealevel;temperature;humidity
71772;BME280;59606;52.138;5.424;2022-08-21T00:01:33;101813.31;;;16.01;76.39
71772;BME280;59606;52.138;5.424;2022-08-21T00:04:04;101815.94;;;16.01;76.37
71772;BME280;59606;52.138;5.424;2022-08-21T00:06:31;101813.59;;;15.97;76.25
71772;BME280;59606;52.138;5.424;2022-08-21T00:09:01;101813.78;;;15.94;76.22
71772;BME280;59606;52.138;5.424;2022-08-21T00:11:33;101818.38;;;15.90;76.67
71772;BME280;59606;52.138;5.424;2022-08-21T00:14:02;101815.19;;;15.85;76.89
71772;BME280;59606;52.138;5.424;2022-08-21T00:16:28;101815.38;;;15.82;76.78
71772;BME280;59606;52.138;5.424;2022-08-21T00:18:55;101811.91;;;15.82;76.82
71772;BME280;59606;52.138;5.424;2022-08-21T00:21:21;101818.28;;;15.77;77.14
71772;BME280;59606;52.138;5.424;2022-08-21T00:23:48;101811.53;;;15.73;77.18
71772;BME280;59606;52.138;5.424;2022-08-21T00:26:15;101811.72;;;15.70;77.43
71772;BME280;59606;52.138;5.424;2022-08-21T00:28:41;101810.03;;;15.69;77.31
71772;BME280;59606;52.138;5.424;2022-08-21T00:31:08;101810.22;;;15.66;77.44
71772;BME280;59606;52.138;5.424;2022-08-21T00:33:35;101809.53;;;15.63;77.31
71772;BME280;59606;52.138;5.424;2022-08-21T00:36:01;101801.72;;;15.61;77.46
71772;BME280;59606;52.138;5.424;2022-08-21T00:38:28;101808.00;;;15.59;77.55
71772;BME280;59606;52.138;5.424;2022-08-21T00:40:58;101808.19;;;15.55;77.86
71772;BME280;59606;52.138;5.424;2022-08-21T00:43:45;101804.84;;;15.53;77.67
71772;BME280;59606;52.138;5.424;2022-08-21T00:46:12;101799.56;;;15.53;77.30
71772;BME280;59606;52.138;5.424;2022-08-21T00:48:38;101794.41;;;15.52;77.54
71772;BME280;59606;52.138;5.424;2022-08-21T00:51:09;101806.69;;;15.51;77.44
71772;BME280;59606;52.138;5.424;2022-08-21T00:53:39;101810.25;;;15.50;77.29
71772;BME280;59606;52.138;5.424;2022-08-21T00:56:07;101811.41;;;15.46;77.48
71772;BME280;59606;52.138;5.424;2022-08-21T00:58:39;101807.16;;;15.44;77.54
71772;BME280;59606;52.138;5.424;2022-08-21T01:01:09;101807.22;;;15.42;77.86
71772;BME280;59606;52.138;5.424;2022-08-21T01:03:36;101809.97;;;15.41;78.01
71772;BME280;59606;52.138;5.424;2022-08-21T01:06:09;101808.47;;;15.37;77.96
71772;BME280;59606;52.138;5.424;2022-08-21T01:08:36;101803.22;;;15.37;78.04
71772;BME280;59606;52.138;5.424;2022-08-21T01:11:12;101801.50;;;15.36;78.34
71772;BME280;59606;52.138;5.424;2022-08-21T01:13:39;101797.31;;;15.33;78.01
71772;BME280;59606;52.138;5.424;2022-08-21T01:16:14;101792.97;;;15.32;78.10
71772;BME280;59606;52.138;5.424;2022-08-21T01:18:42;101792.41;;;15.27;77.95
71772;BME280;59606;52.138;5.424;2022-08-21T01:21:15;101795.13;;;15.25;78.32
71772;BME280;59606;52.138;5.424;2022-08-21T01:23:48;101796.16;;;15.23;78.42
71772;BME280;59606;52.138;5.424;2022-08-21T01:26:17;101804.22;;;15.20;78.70
71772;BME280;59606;52.138;5.424;2022-08-21T01:28:49;101804.41;;;15.17;78.76
71772;BME280;59606;52.138;5.424;2022-08-21T01:31:20;101808.13;;;15.13;78.72
71772;BME280;59606;52.138;5.424;2022-08-21T01:33:51;101804.84;;;15.09;78.75
71772;BME280;59606;52.138;5.424;2022-08-21T01:36:18;101807.72;;;15.04;78.98
71772;BME280;59606;52.138;5.424;2022-08-21T01:38:45;101805.28;;;15.01;78.85
71772;BME280;59606;52.138;5.424;2022-08-21T01:41:14;101801.16;;;14.97;79.16
71772;BME280;59606;52.138;5.424;2022-08-21T01:43:42;101799.53;;;14.95;79.60
71772;BME280;59606;52.138;5.424;2022-08-21T01:46:09;101799.72;;;14.92;79.73
71772;BME280;59606;52.138;5.424;2022-08-21T01:48:36;101807.75;;;14.89;79.56
71772;BME280;59606;52.138;5.424;2022-08-21T01:51:03;101800.94;;;14.86;79.21
71772;BME280;59606;52.138;5.424;2022-08-21T01:53:31;101798.38;;;14.84;79.33
71772;BME280;59606;52.138;5.424;2022-08-21T01:55:59;101800.16;;;14.84;79.26
71772;BME280;59606;52.138;5.424;2022-08-21T01:58:26;101794.06;;;14.83;79.48
71772;BME280;59606;52.138;5.424;2022-08-21T02:00:53;101798.53;;;14.81;79.20
71772;BME280;59606;52.138;5.424;2022-08-21T02:03:20;101790.94;;;14.77;79.74
71772;BME280;59606;52.138;5.424;2022-08-21T02:06:01;101794.41;;;14.77;79.63
71772;BME280;59606;52.138;5.424;2022-08-21T02:08:29;101801.50;;;14.75;79.50
71772;BME280;59606;52.138;5.424;2022-08-21T02:10:55;101792.91;;;14.73;80.01
71772;BME280;59606;52.138;5.424;2022-08-21T02:13:22;101793.84;;;14.72;79.31
71772;BME280;59606;52.138;5.424;2022-08-21T02:15:48;101789.50;;;14.71;79.94
71772;BME280;59606;52.138;5.424;2022-08-21T02:18:15;101780.91;;;14.69;79.65
71772;BME280;59606;52.138;5.424;2022-08-21T02:20:46;101780.97;;;14.68;79.89
71772;BME280;59606;52.138;5.424;2022-08-21T02:23:13;101788.19;;;14.64;79.96
71772;BME280;59606;52.138;5.424;2022-08-21T02:25:41;101780.47;;;14.61;80.15
71772;BME280;59606;52.138;5.424;2022-08-21T02:28:12;101778.88;;;14.58;80.20
71772;BME280;59606;52.138;5.424;2022-08-21T02:30:42;101783.44;;;14.55;80.12
71772;BME280;59606;52.138;5.424;2022-08-21T02:33:10;101777.28;;;14.56;80.19
71772;BME280;59606;52.138;5.424;2022-08-21T02:35:39;101782.53;;;14.56;80.26
71772;BME280;59606;52.138;5.424;2022-08-21T02:38:11;101768.59;;;14.55;80.36
71772;BME280;59606;52.138;5.424;2022-08-21T02:40:41;101767.88;;;14.52;80.18
71772;BME280;59606;52.138;5.424;2022-08-21T02:43:14;101770.66;;;14.49;80.73
71772;BME280;59606;52.138;5.424;2022-08-21T02:45:42;101758.56;;;14.46;80.42
71772;BME280;59606;52.138;5.424;2022-08-21T02:48:12;101766.59;;;14.43;80.82
71772;BME280;59606;52.138;5.424;2022-08-21T02:50:53;101771.00;;;14.43;80.53
71772;BME280;59606;52.138;5.424;2022-08-21T02:53:20;101760.59;;;14.41;80.66
71772;BME280;59606;52.138;5.424;2022-08-21T02:55:48;101760.75;;;14.38;80.66
71772;BME280;59606;52.138;5.424;2022-08-21T02:58:18;101756.47;;;14.37;80.53
71772;BME280;59606;52.138;5.424;2022-08-21T03:00:45;101760.09;;;14.34;80.50
71772;BME280;59606;52.138;5.424;2022-08-21T03:03:12;101755.97;;;14.30;80.55
71772;BME280;59606;52.138;5.424;2022-08-21T03:05:41;101757.91;;;14.27;80.84
71772;BME280;59606;52.138;5.424;2022-08-21T03:08:10;101752.75;;;14.25;80.88
71772;BME280;59606;52.138;5.424;2022-08-21T03:10:41;101759.84;;;14.23;80.58
71772;BME280;59606;52.138;5.424;2022-08-21T03:13:08;101753.00;;;14.21;80.69
71772;BME280;59606;52.138;5.424;2022-08-21T03:15:36;101755.56;;;14.22;80.87
71772;BME280;59606;52.138;5.424;2022-08-21T03:18:04;101757.31;;;14.22;80.88
71772;BME280;59606;52.138;5.424;2022-08-21T03:20:31;101753.09;;;14.19;81.09
71772;BME280;59606;52.138;5.424;2022-08-21T03:22:59;101749.81;;;14.15;81.41
71772;BME280;59606;52.138;5.424;2022-08-21T03:25:28;101753.34;;;14.14;81.20
71772;BME280;59606;52.138;5.424;2022-08-21T03:28:08;101740.59;;;14.08;81.75
71772;BME280;59606;52.138;5.424;2022-08-21T03:30:40;101746.75;;;14.07;81.53
71772;BME280;59606;52.138;5.424;2022-08-21T03:33:06;101744.13;;;14.07;81.76
71772;BME280;59606;52.138;5.424;2022-08-21T03:35:33;101750.38;;;14.05;81.69
71772;BME280;59606;52.138;5.424;2022-08-21T03:37:59;101745.31;;;14.02;81.71
71772;BME280;59606;52.138;5.424;2022-08-21T03:40:26;101748.84;;;14.01;82.11
71772;BME280;59606;52.138;5.424;2022-08-21T03:42:52;101749.78;;;14.00;82.06
71772;BME280;59606;52.138;5.424;2022-08-21T03:45:19;101742.00;;;13.98;81.76
71772;BME280;59606;52.138;5.424;2022-08-21T03:48:00;101743.78;;;13.98;81.64
71772;BME280;59606;52.138;5.424;2022-08-21T03:50:33;101749.00;;;13.98;81.81
71772;BME280;59606;52.138;5.424;2022-08-21T03:53:10;101737.78;;;13.96;81.94
71772;BME280;59606;52.138;5.424;2022-08-21T03:55:46;101744.03;;;13.93;82.03
71772;BME280;59606;52.138;5.424;2022-08-21T03:58:15;101750.28;;;13.90;81.78
71772;BME280;59606;52.138;5.424;2022-08-21T04:00:47;101752.22;;;13.87;81.85
71772;BME280;59606;52.138;5.424;2022-08-21T04:03:15;101748.94;;;13.83;81.71
71772;BME280;59606;52.138;5.424;2022-08-21T04:05:42;101745.53;;;13.81;82.28
71772;BME280;59606;52.138;5.424;2022-08-21T04:08:12;101752.56;;;13.81;82.43
71772;BME280;59606;52.138;5.424;2022-08-21T04:10:40;101750.88;;;13.80;82.17
71772;BME280;59606;52.138;5.424;2022-08-21T04:13:07;101744.84;;;13.78;82.06
71772;BME280;59606;52.138;5.424;2022-08-21T04:15:34;101746.72;;;13.76;82.17
71772;BME280;59606;52.138;5.424;2022-08-21T04:18:01;101745.94;;;13.74;82.33
71772;BME280;59606;52.138;5.424;2022-08-21T04:20:28;101743.50;;;13.71;82.48
71772;BME280;59606;52.138;5.424;2022-08-21T04:22:54;101750.50;;;13.70;81.79
71772;BME280;59606;52.138;5.424;2022-08-21T04:25:22;101749.72;;;13.68;82.12
71772;BME280;59606;52.138;5.424;2022-08-21T04:27:51;101747.22;;;13.66;82.56
71772;BME280;59606;52.138;5.424;2022-08-21T04:30:19;101746.38;;;13.66;82.33
71772;BME280;59606;52.138;5.424;2022-08-21T04:32:49;101747.31;;;13.65;82.26
71772;BME280;59606;52.138;5.424;2022-08-21T04:35:21;101756.84;;;13.66;82.38
71772;BME280;59606;52.138;5.424;2022-08-21T04:37:48;101748.16;;;13.65;82.47
71772;BME280;59606;52.138;5.424;2022-08-21T04:40:16;101743.81;;;13.64;82.57
71772;BME280;59606;52.138;5.424;2022-08-21T04:42:46;101745.53;;;13.65;83.03
71772;BME280;59606;52.138;5.424;2022-08-21T04:45:24;101743.81;;;13.64;82.74
71772;BME280;59606;52.138;5.424;2022-08-21T04:47:53;101744.59;;;13.66;83.41
71772;BME280;59606;52.138;5.424;2022-08-21T04:50:22;101739.34;;;13.66;83.61
71772;BME280;59606;52.138;5.424;2022-08-21T04:52:50;101745.44;;;13.67;83.49
71772;BME280;59606;52.138;5.424;2022-08-21T04:55:18;101747.22;;;13.66;84.07
71772;BME280;59606;52.138;5.424;2022-08-21T04:57:45;101742.97;;;13.64;84.25
71772;BME280;59606;52.138;5.424;2022-08-21T05:00:15;101748.22;;;13.64;84.30
71772;BME280;59606;52.138;5.424;2022-08-21T05:02:45;101749.00;;;13.66;84.46
71772;BME280;59606;52.138;5.424;2022-08-21T05:05:14;101745.59;;;13.64;84.89
71772;BME280;59606;52.138;5.424;2022-08-21T05:07:42;101755.16;;;13.65;84.79
71772;BME280;59606;52.138;5.424;2022-08-21T05:10:10;101754.22;;;13.66;84.98
71772;BME280;59606;52.138;5.424;2022-08-21T05:12:39;101754.22;;;13.66;85.21
71772;BME280;59606;52.138;5.424;2022-08-21T05:15:09;101760.97;;;13.70;84.99
71772;BME280;59606;52.138;5.424;2022-08-21T05:17:39;101762.59;;;13.73;84.99
71772;BME280;59606;52.138;5.424;2022-08-21T05:20:06;101767.59;;;13.77;84.85
71772;BME280;59606;52.138;5.424;2022-08-21T05:22:33;101771.81;;;13.80;84.83
71772;BME280;59606;52.138;5.424;2022-08-21T05:24:59;101772.44;;;13.85;84.93
71772;BME280;59606;52.138;5.424;2022-08-21T05:27:28;101770.41;;;14.06;84.61
71772;BME280;59606;52.138;5.424;2022-08-21T05:29:58;101781.75;;;14.22;83.82
71772;BME280;59606;52.138;5.424;2022-08-21T05:32:24;101775.06;;;14.64;83.05
71772;BME280;59606;52.138;5.424;2022-08-21T05:34:51;101771.75;;;15.06;81.35
71772;BME280;59606;52.138;5.424;2022-08-21T05:37:18;101776.19;;;15.20;80.68
71772;BME280;59606;52.138;5.424;2022-08-21T05:39:44;101776.50;;;15.59;80.19
71772;BME280;59606;52.138;5.424;2022-08-21T05:42:31;101767.75;;;16.69;77.37
71772;BME280;59606;52.138;5.424;2022-08-21T05:44:57;101759.69;;;17.38;74.46
71772;BME280;59606;52.138;5.424;2022-08-21T05:47:24;101768.59;;;17.86;72.55
71772;BME280;59606;52.138;5.424;2022-08-21T05:49:51;101762.97;;;18.04;71.74
71772;BME280;59606;52.138;5.424;2022-08-21T05:52:19;101760.06;;;17.96;71.38
71772;BME280;59606;52.138;5.424;2022-08-21T05:54:46;101760.28;;;17.67;72.31
71772;BME280;59606;52.138;5.424;2022-08-21T05:57:13;101766.19;;;17.19;73.13
71772;BME280;59606;52.138;5.424;2022-08-21T05:59:40;101760.91;;;16.67;75.24
71772;BME280;59606;52.138;5.424;2022-08-21T06:02:06;101763.31;;;16.16;77.07
71772;BME280;59606;52.138;5.424;2022-08-21T06:04:40;101766.75;;;15.75;78.89
71772;BME280;59606;52.138;5.424;2022-08-21T06:07:07;101760.91;;;15.55;80.67
71772;BME280;59606;52.138;5.424;2022-08-21T06:09:34;101758.94;;;15.45;81.70
71772;BME280;59606;52.138;5.424;2022-08-21T06:12:08;101759.78;;;15.45;81.94
71772;BME280;59606;52.138;5.424;2022-08-21T06:14:36;101762.53;;;15.44;82.62
71772;BME280;59606;52.138;5.424;2022-08-21T06:17:05;101766.47;;;15.51;82.67
71772;BME280;59606;52.138;5.424;2022-08-21T06:19:32;101763.66;;;15.54;83.01
71772;BME280;59606;52.138;5.424;2022-08-21T06:21:59;101760.84;;;15.57;83.17
71772;BME280;59606;52.138;5.424;2022-08-21T06:24:26;101764.88;;;15.63;83.62
71772;BME280;59606;52.138;5.424;2022-08-21T06:26:53;101761.63;;;15.73;83.88
71772;BME280;59606;52.138;5.424;2022-08-21T06:29:20;101763.19;;;15.76;84.22
71772;BME280;59606;52.138;5.424;2022-08-21T06:31:48;101763.47;;;15.86;84.00
71772;BME280;59606;52.138;5.424;2022-08-21T06:34:15;101764.81;;;15.93;83.66
71772;BME280;59606;52.138;5.424;2022-08-21T06:36:42;101764.31;;;16.00;84.25
71772;BME280;59606;52.138;5.424;2022-08-21T06:39:09;101754.97;;;16.09;84.18
71772;BME280;59606;52.138;5.424;2022-08-21T06:41:49;101754.84;;;16.25;85.64
71772;BME280;59606;52.138;5.424;2022-08-21T06:44:16;101761.22;;;16.35;84.35
71772;BME280;59606;52.138;5.424;2022-08-21T06:46:43;101759.16;;;16.40;84.36
71772;BME280;59606;52.138;5.424;2022-08-21T06:49:13;101767.06;;;16.53;84.56
71772;BME280;59606;52.138;5.424;2022-08-21T06:51:47;101765.81;;;16.59;83.56
71772;BME280;59606;52.138;5.424;2022-08-21T06:54:13;101763.94;;;16.61;83.65
71772;BME280;59606;52.138;5.424;2022-08-21T06:56:40;101762.03;;;16.63;83.63
71772;BME280;59606;52.138;5.424;2022-08-21T06:59:06;101757.13;;;16.71;83.69
71772;BME280;59606;52.138;5.424;2022-08-21T07:01:33;101761.84;;;16.80;84.27
71772;BME280;59606;52.138;5.424;2022-08-21T07:03:59;101760.47;;;16.87;84.17
71772;BME280;59606;52.138;5.424;2022-08-21T07:06:26;101754.28;;;17.01;84.13
71772;BME280;59606;52.138;5.424;2022-08-21T07:08:54;101752.28;;;17.05;82.61
71772;BME280;59606;52.138;5.424;2022-08-21T07:11:25;101760.09;;;17.19;83.06
71772;BME280;59606;52.138;5.424;2022-08-21T07:13:51;101759.34;;;17.30;82.29
71772;BME280;59606;52.138;5.424;2022-08-21T07:16:21;101751.97;;;17.35;81.73
71772;BME280;59606;52.138;5.424;2022-08-21T07:18:48;101744.81;;;17.37;82.36
71772;BME280;59606;52.138;5.424;2022-08-21T07:21:15;101751.44;;;17.42;81.60
71772;BME280;59606;52.138;5.424;2022-08-21T07:23:46;101742.78;;;17.53;82.00
71772;BME280;59606;52.138;5.424;2022-08-21T07:26:14;101755.53;;;17.72;81.55
71772;BME280;59606;52.138;5.424;2022-08-21T07:28:41;101749.44;;;17.84;80.72
71772;BME280;59606;52.138;5.424;2022-08-21T07:31:09;101755.94;;;17.92;80.15
71772;BME280;59606;52.138;5.424;2022-08-21T07:33:36;101753.19;;;17.93;80.07
71772;BME280;59606;52.138;5.424;2022-08-21T07:36:03;101755.63;;;17.96;80.09
71772;BME280;59606;52.138;5.424;2022-08-21T07:38:29;101752.53;;;18.02;80.22
71772;BME280;59606;52.138;5.424;2022-08-21T07:40:57;101747.31;;;18.13;80.42
71772;BME280;59606;52.138;5.424;2022-08-21T07:43:25;101758.06;;;18.23;79.71
71772;BME280;59606;52.138;5.424;2022-08-21T07:45:52;101756.56;;;18.32;79.37
71772;BME280;59606;52.138;5.424;2022-08-21T07:48:23;101752.88;;;18.34;79.46
71772;BME280;59606;52.138;5.424;2022-08-21T07:50:50;101757.44;;;18.44;78.79
71772;BME280;59606;52.138;5.424;2022-08-21T07:53:17;101750.16;;;18.47;79.05
71772;BME280;59606;52.138;5.424;2022-08-21T07:55:44;101758.97;;;18.59;79.59
71772;BME280;59606;52.138;5.424;2022-08-21T07:58:10;101743.13;;;18.83;79.61
71772;BME280;59606;52.138;5.424;2022-08-21T08:00:37;101746.53;;;18.96;78.68
71772;BME280;59606;52.138;5.424;2022-08-21T08:03:04;101759.03;;;19.05;77.87
71772;BME280;59606;52.138;5.424;2022-08-21T08:05:30;101764.56;;;19.02;77.73
71772;BME280;59606;52.138;5.424;2022-08-21T08:07:58;101761.44;;;19.08;78.26
71772;BME280;59606;52.138;5.424;2022-08-21T08:10:25;101742.00;;;19.10;77.69
71772;BME280;59606;52.138;5.424;2022-08-21T08:12:53;101745.22;;;19.13;78.14
71772;BME280;59606;52.138;5.424;2022-08-21T08:15:23;101745.59;;;19.31;76.65
71772;BME280;59606;52.138;5.424;2022-08-21T08:17:51;101740.00;;;19.36;78.05
71772;BME280;59606;52.138;5.424;2022-08-21T08:20:18;101739.25;;;19.45;77.08
71772;BME280;59606;52.138;5.424;2022-08-21T08:22:47;101735.91;;;19.54;77.31
71772;BME280;59606;52.138;5.424;2022-08-21T08:25:16;101738.69;;;19.64;76.16
71772;BME280;59606;52.138;5.424;2022-08-21T08:27:43;101739.72;;;19.61;75.92
71772;BME280;59606;52.138;5.424;2022-08-21T08:30:13;101739.03;;;19.59;75.45
71772;BME280;59606;52.138;5.424;2022-08-21T08:32:40;101734.50;;;19.72;78.44
71772;BME280;59606;52.138;5.424;2022-08-21T08:35:08;101733.63;;;19.83;75.07
71772;BME280;59606;52.138;5.424;2022-08-21T08:37:35;101733.50;;;19.96;75.22
71772;BME280;59606;52.138;5.424;2022-08-21T08:40:26;101741.34;;;20.18;74.24
71772;BME280;59606;52.138;5.424;2022-08-21T08:42:55;101744.97;;;20.17;73.40
71772;BME280;59606;52.138;5.424;2022-08-21T08:45:22;101748.56;;;20.28;73.47
71772;BME280;59606;52.138;5.424;2022-08-21T08:47:56;101746.00;;;20.37;73.22
71772;BME280;59606;52.138;5.424;2022-08-21T08:50:46;101744.41;;;20.57;73.30
71772;BME280;59606;52.138;5.424;2022-08-21T08:53:19;101741.31;;;20.73;71.98
71772;BME280;59606;52.138;5.424;2022-08-21T08:55:51;101740.44;;;20.52;71.90
71772;BME280;59606;52.138;5.424;2022-08-21T08:58:23;101732.13;;;20.45;72.46
71772;BME280;59606;52.138;5.424;2022-08-21T09:00:53;101746.81;;;20.49;73.21
71772;BME280;59606;52.138;5.424;2022-08-21T09:03:24;101738.94;;;20.70;72.61
71772;BME280;59606;52.138;5.424;2022-08-21T09:05:56;101740.34;;;20.95;71.94
71772;BME280;59606;52.138;5.424;2022-08-21T09:16:35;101726.59;;;21.01;70.01
71772;BME280;59606;52.138;5.424;2022-08-21T09:22:08;101724.97;;;21.10;69.56
71772;BME280;59606;52.138;5.424;2022-08-21T09:27:19;101719.03;;;21.48;67.86
71772;BME280;59606;52.138;5.424;2022-08-21T09:29:47;101714.34;;;21.61;67.41
71772;BME280;59606;52.138;5.424;2022-08-21T09:32:22;101722.84;;;21.65;66.61
71772;BME280;59606;52.138;5.424;2022-08-21T09:35:18;101728.47;;;21.72;65.79
71772;BME280;59606;52.138;5.424;2022-08-21T09:37:51;101729.63;;;21.88;66.96
71772;BME280;59606;52.138;5.424;2022-08-21T09:40:39;101735.97;;;22.07;64.52
71772;BME280;59606;52.138;5.424;2022-08-21T09:45:41;101735.53;;;22.02;65.85
71772;BME280;59606;52.138;5.424;2022-08-21T09:48:20;101731.66;;;22.16;64.86
71772;BME280;59606;52.138;5.424;2022-08-21T09:50:48;101739.75;;;22.14;64.91
71772;BME280;59606;52.138;5.424;2022-08-21T09:53:25;101735.44;;;22.23;64.11
71772;BME280;59606;52.138;5.424;2022-08-21T09:56:02;101732.09;;;22.21;64.33
71772;BME280;59606;52.138;5.424;2022-08-21T09:58:51;101728.47;;;22.51;61.67
71772;BME280;59606;52.138;5.424;2022-08-21T10:01:23;101724.84;;;22.62;62.09
71772;BME280;59606;52.138;5.424;2022-08-21T10:04:10;101717.69;;;22.62;62.64
71772;BME280;59606;52.138;5.424;2022-08-21T10:06:37;101718.41;;;22.54;63.79
71772;BME280;59606;52.138;5.424;2022-08-21T10:09:06;101719.25;;;22.55;61.19
71772;BME280;59606;52.138;5.424;2022-08-21T10:11:36;101709.19;;;22.58;61.86
71772;BME280;59606;52.138;5.424;2022-08-21T10:14:09;101714.22;;;22.62;61.99
71772;BME280;59606;52.138;5.424;2022-08-21T10:17:01;101719.81;;;22.58;62.05
71772;BME280;59606;52.138;5.424;2022-08-21T10:22:44;101710.53;;;23.01;61.81
71772;BME280;59606;52.138;5.424;2022-08-21T10:25:16;101711.81;;;22.97;57.12
71772;BME280;59606;52.138;5.424;2022-08-21T10:28:04;101721.59;;;22.77;59.36
71772;BME280;59606;52.138;5.424;2022-08-21T10:31:08;101718.09;;;22.77;61.25
71772;BME280;59606;52.138;5.424;2022-08-21T10:36:24;101706.97;;;23.20;60.01
71772;BME280;59606;52.138;5.424;2022-08-21T10:42:38;101698.13;;;23.57;58.05
71772;BME280;59606;52.138;5.424;2022-08-21T10:45:15;101698.25;;;23.65;56.37
71772;BME280;59606;52.138;5.424;2022-08-21T10:47:48;101696.53;;;23.74;57.00
71772;BME280;59606;52.138;5.424;2022-08-21T10:50:39;101693.31;;;23.98;56.78
71772;BME280;59606;52.138;5.424;2022-08-21T10:53:39;101690.72;;;24.06;55.82
71772;BME280;59606;52.138;5.424;2022-08-21T10:56:29;101694.06;;;24.08;56.70
71772;BME280;59606;52.138;5.424;2022-08-21T10:59:00;101684.56;;;24.06;55.06
71772;BME280;59606;52.138;5.424;2022-08-21T11:02:17;101687.16;;;24.15;54.39
71772;BME280;59606;52.138;5.424;2022-08-21T11:04:34;101679.31;;;24.32;54.88
71772;BME280;59606;52.138;5.424;2022-08-21T11:10:15;101680.28;;;24.13;56.48
71772;BME280;59606;52.138;5.424;2022-08-21T11:12:50;101685.09;;;24.09;54.32
71772;BME280;59606;52.138;5.424;2022-08-21T11:18:09;101680.72;;;23.90;54.77
71772;BME280;59606;52.138;5.424;2022-08-21T11:20:49;101678.84;;;24.18;51.95
71772;BME280;59606;52.138;5.424;2022-08-21T11:23:38;101678.09;;;24.26;54.84
71772;BME280;59606;52.138;5.424;2022-08-21T11:26:17;101676.88;;;24.38;53.69
71772;BME280;59606;52.138;5.424;2022-08-21T11:28:54;101670.22;;;24.60;52.97
71772;BME280;59606;52.138;5.424;2022-08-21T11:34:20;101671.16;;;24.51;52.66
71772;BME280;59606;52.138;5.424;2022-08-21T11:37:02;101670.41;;;24.41;52.09
71772;BME280;59606;52.138;5.424;2022-08-21T11:45:26;101673.38;;;24.20;52.96
71772;BME280;59606;52.138;5.424;2022-08-21T11:51:00;101684.09;;;23.92;52.62
71772;BME280;59606;52.138;5.424;2022-08-21T11:53:37;101687.06;;;23.89;53.28
71772;BME280;59606;52.138;5.424;2022-08-21T11:56:18;101693.13;;;23.82;52.74
71772;BME280;59606;52.138;5.424;2022-08-21T11:58:51;101697.69;;;23.71;55.24
71772;BME280;59606;52.138;5.424;2022-08-21T12:01:43;101696.16;;;23.59;53.46
71772;BME280;59606;52.138;5.424;2022-08-21T12:04:28;101699.88;;;23.48;55.22
71772;BME280;59606;52.138;5.424;2022-08-21T12:06:55;101700.28;;;23.44;56.04
71772;BME280;59606;52.138;5.424;2022-08-21T12:12:05;101695.22;;;23.23;56.55
71772;BME280;59606;52.138;5.424;2022-08-21T12:14:45;101706.03;;;23.12;57.24
71772;BME280;59606;52.138;5.424;2022-08-21T12:17:24;101704.66;;;23.08;56.82
71772;BME280;59606;52.138;5.424;2022-08-21T12:20:26;101702.41;;;23.03;56.70
71772;BME280;59606;52.138;5.424;2022-08-21T12:23:01;101703.66;;;23.09;57.17
71772;BME280;59606;52.138;5.424;2022-08-21T12:25:36;101692.16;;;23.18;57.31
71772;BME280;59606;52.138;5.424;2022-08-21T12:28:10;101695.06;;;23.24;57.75
71772;BME280;59606;52.138;5.424;2022-08-21T12:30:40;101698.00;;;23.31;56.11
71772;BME280;59606;52.138;5.424;2022-08-21T12:35:47;101695.34;;;23.86;55.03
71772;BME280;59606;52.138;5.424;2022-08-21T12:38:27;101689.50;;;24.18;56.15
71772;BME280;59606;52.138;5.424;2022-08-21T12:41:01;101693.84;;;24.19;55.71
71772;BME280;59606;52.138;5.424;2022-08-21T12:43:40;101688.97;;;24.15;54.83
71772;BME280;59606;52.138;5.424;2022-08-21T12:46:15;101697.09;;;24.13;54.95
71772;BME280;59606;52.138;5.424;2022-08-21T12:48:57;101693.13;;;24.17;54.56
71772;BME280;59606;52.138;5.424;2022-08-21T12:51:30;101690.56;;;24.26;52.99
71772;BME280;59606;52.138;5.424;2022-08-21T12:53:59;101689.44;;;24.28;51.51
71772;BME280;59606;52.138;5.424;2022-08-21T12:56:30;101698.47;;;24.35;52.54
71772;BME280;59606;52.138;5.424;2022-08-21T12:59:11;101698.09;;;24.30;52.00
71772;BME280;59606;52.138;5.424;2022-08-21T13:01:45;101697.28;;;24.12;51.42
71772;BME280;59606;52.138;5.424;2022-08-21T13:04:19;101698.69;;;24.06;52.01
71772;BME280;59606;52.138;5.424;2022-08-21T13:06:49;101696.50;;;24.02;51.61
71772;BME280;59606;52.138;5.424;2022-08-21T13:09:28;101699.75;;;23.95;51.83
71772;BME280;59606;52.138;5.424;2022-08-21T13:11:57;101704.03;;;24.24;52.49
71772;BME280;59606;52.138;5.424;2022-08-21T13:14:38;101703.94;;;24.34;50.85
71772;BME280;59606;52.138;5.424;2022-08-21T13:17:11;101708.44;;;24.15;52.05
71772;BME280;59606;52.138;5.424;2022-08-21T13:20:06;101707.91;;;24.12;52.94
71772;BME280;59606;52.138;5.424;2022-08-21T13:22:41;101707.38;;;24.08;52.75
71772;BME280;59606;52.138;5.424;2022-08-21T13:25:14;101705.25;;;24.12;53.49
71772;BME280;59606;52.138;5.424;2022-08-21T13:27:55;101702.66;;;24.20;54.16
71772;BME280;59606;52.138;5.424;2022-08-21T13:30:23;101708.22;;;24.44;51.77
71772;BME280;59606;52.138;5.424;2022-08-21T13:32:52;101710.19;;;24.60;51.30
71772;BME280;59606;52.138;5.424;2022-08-21T13:35:26;101696.00;;;24.52;51.53
71772;BME280;59606;52.138;5.424;2022-08-21T13:37:54;101698.13;;;24.48;52.02
71772;BME280;59606;52.138;5.424;2022-08-21T13:40:30;101700.06;;;24.64;52.50
71772;BME280;59606;52.138;5.424;2022-08-21T13:42:59;101701.31;;;24.78;51.10
71772;BME280;59606;52.138;5.424;2022-08-21T13:45:31;101688.91;;;24.86;50.94
71772;BME280;59606;52.138;5.424;2022-08-21T13:48:00;101691.53;;;24.78;53.09
71772;BME280;59606;52.138;5.424;2022-08-21T13:50:33;101689.81;;;24.77;49.96
71772;BME280;59606;52.138;5.424;2022-08-21T13:53:04;101693.97;;;24.72;51.75
71772;BME280;59606;52.138;5.424;2022-08-21T13:55:38;101694.72;;;24.64;50.08
71772;BME280;59606;52.138;5.424;2022-08-21T13:58:06;101696.66;;;24.54;50.14
71772;BME280;59606;52.138;5.424;2022-08-21T14:00:42;101696.97;;;24.51;52.38